Main page
METAR-TAF:

METAR-TAF

Airports :

Bern Airport

Berne, Switzerland

latitude: 46-55N, longitude: 007-30E, elevation: 505 m

Current weather observation

The report was made 12 minutes ago, at 14:50 UTC
Wind 5 kt from the North/Northwest, varying between West/Northwest and North
Temperature 24°C
Humidity 54%
Pressure 1015 hPa
Visibility 10 km or more
Few clouds at a height of 6500 ft

METAR: LSZB 171450Z 33005KT 290V010 9999 FEW065 24/14 Q1015

Time: 17:02 (15:02 UTC)

Forecast

The report was made 3 hours and 37 minutes ago, at 11:25 UTC
Forecast valid from 17 at 12 UTC to 17 at 21 UTC
Wind 5 kt from the Northwest
Visibility 10 km or more
Broken clouds at a height of 12000 ft
Becoming
from 17 at 16 UTC to 17 at 18 UTC
Visibility 10 km or more
no clouds below 1500 m and no cumulonimbus

TAF: LSZB 171125Z 1712/1721 32005KT 9999 BKN120 BECMG 1716/1718 CAVOK

Weather observations and forecasts of more than 4000 airports (METAR and TAF reports).

The available stations are represented by yellow and red dots on the map.

Hover mouse over dot to see the name of the station.

Then click to see weather observations and forecasts.

To change the map : click on the green buttons with a black cross to zoom in, on the green button with a dash to zoom out, or on the green arrows for adjacent maps.


METAR-TAF: